Time;durP1;ratioP1;P1;durP2;ratioP2;P2;SDS_P1;SDS_P2;PMS_P1;PMS_P2;Temp;Humidity;BMP_temperature;BMP_pressure;BME280_temperature;BME280_humidity;BME280_pressure;Samples;Min_cycle;Max_cycle;Signal;HPM_P1;HPM_P2
2021/06/25 00:00:50;;;;;;;38.50;7.60;;;;;;;;;;5073151;28;20390;-60
2021/06/25 00:03:16;;;;;;;33.95;7.82;;;;;;;;;;5074274;28;20368;-60
2021/06/25 00:05:42;;;;;;;30.92;9.32;;;;;;;;;;5074491;28;20399;-60
2021/06/25 00:08:08;;;;;;;40.22;8.60;;;;;;;;;;5074358;28;20036;-62
2021/06/25 00:10:35;;;;;;;36.35;8.48;;;;;;;;;;5074362;28;20028;-60
2021/06/25 00:13:01;;;;;;;42.13;8.25;;;;;;;;;;5072857;28;20556;-63
2021/06/25 00:15:27;;;;;;;33.30;7.05;;;;;;;;;;5072718;28;20029;-62
2021/06/25 00:17:53;;;;;;;41.65;9.23;;;;;;;;;;5074052;28;20024;-64
2021/06/25 00:20:20;;;;;;;33.33;8.30;;;;;;;;;;5072808;28;20074;-61
2021/06/25 00:22:46;;;;;;;38.92;8.15;;;;;;;;;;5073994;28;20035;-60
2021/06/25 00:25:13;;;;;;;36.03;8.18;;;;;;;;;;5073777;28;20468;-60
2021/06/25 00:27:39;;;;;;;42.78;8.20;;;;;;;;;;5074009;28;20029;-61
2021/06/25 00:30:06;;;;;;;36.72;7.90;;;;;;;;;;5074015;28;20089;-60
2021/06/25 00:32:32;;;;;;;36.72;8.57;;;;;;;;;;5073612;28;20028;-60
2021/06/25 00:34:58;;;;;;;44.35;9.13;;;;;;;;;;5073947;28;20055;-60
2021/06/25 00:37:24;;;;;;;42.67;9.00;;;;;;;;;;5073925;28;20028;-60
2021/06/25 00:39:52;;;;;;;40.28;7.68;;;;;;;;;;5073823;28;20030;-60
2021/06/25 00:42:18;;;;;;;45.42;7.88;;;;;;;;;;5073744;28;20016;-60
2021/06/25 00:44:44;;;;;;;44.08;8.23;;;;;;;;;;5073685;28;20044;-61
2021/06/25 00:47:11;;;;;;;38.95;7.78;;;;;;;;;;5073648;28;20017;-59
2021/06/25 00:49:38;;;;;;;34.78;7.93;;;;;;;;;;5073569;28;20145;-63
2021/06/25 00:52:05;;;;;;;38.97;9.57;;;;;;;;;;5073335;28;20021;-60
2021/06/25 00:54:31;;;;;;;36.70;8.70;;;;;;;;;;5073385;28;20035;-60
2021/06/25 00:56:57;;;;;;;37.20;8.25;;;;;;;;;;5073352;28;20068;-60
2021/06/25 00:59:23;;;;;;;39.90;7.97;;;;;;;;;;5073513;28;20035;-60
2021/06/25 01:01:49;;;;;;;41.67;8.38;;;;;;;;;;5073420;28;20433;-60
2021/06/25 01:04:15;;;;;;;44.00;8.70;;;;;;;;;;5073240;28;20103;-61
2021/06/25 01:06:41;;;;;;;37.85;8.35;;;;;;;;;;5088703;28;20029;-60
2021/06/25 01:09:08;;;;;;;40.80;7.57;;;;;;;;;;5078798;28;20567;-61
2021/06/25 01:11:35;;;;;;;38.53;8.55;;;;;;;;;;5073128;28;20025;-61
2021/06/25 01:14:01;;;;;;;42.00;8.75;;;;;;;;;;5073132;28;20456;-60
2021/06/25 01:16:28;;;;;;;39.58;7.78;;;;;;;;;;5072852;28;20041;-60
2021/06/25 01:18:54;;;;;;;43.83;8.82;;;;;;;;;;5073146;28;20104;-61
2021/06/25 01:21:20;;;;;;;38.83;8.18;;;;;;;;;;5072874;28;20036;-60
2021/06/25 01:23:46;;;;;;;41.47;8.63;;;;;;;;;;5072678;28;20021;-61
2021/06/25 01:26:12;;;;;;;48.88;8.60;;;;;;;;;;5072870;28;20031;-61
2021/06/25 01:28:39;;;;;;;37.55;8.27;;;;;;;;;;5072916;28;20097;-60
2021/06/25 01:31:05;;;;;;;37.92;8.23;;;;;;;;;;5072550;28;20020;-59
2021/06/25 01:33:32;;;;;;;33.97;6.90;;;;;;;;;;5072854;28;20028;-61
2021/06/25 01:35:58;;;;;;;37.03;8.05;;;;;;;;;;5072675;28;20064;-59
2021/06/25 01:38:25;;;;;;;47.50;8.50;;;;;;;;;;5072848;28;20021;-61
2021/06/25 01:40:51;;;;;;;42.65;9.05;;;;;;;;;;5072673;28;20368;-61
2021/06/25 01:43:18;;;;;;;39.30;8.52;;;;;;;;;;5054787;28;20032;-60
2021/06/25 01:45:44;;;;;;;49.28;8.93;;;;;;;;;;5052808;28;20038;-60
2021/06/25 01:48:11;;;;;;;35.38;7.82;;;;;;;;;;5052386;28;20017;-60
2021/06/25 01:50:39;;;;;;;37.17;7.75;;;;;;;;;;5052476;28;20025;-60
2021/06/25 01:53:10;;;;;;;43.08;8.93;;;;;;;;;;5052394;28;20029;-60
2021/06/25 01:55:40;;;;;;;32.33;8.43;;;;;;;;;;5050983;28;20029;-63
2021/06/25 01:58:10;;;;;;;43.58;9.00;;;;;;;;;;5052199;28;20060;-60
2021/06/25 02:00:37;;;;;;;39.17;8.68;;;;;;;;;;5052489;28;20048;-61
2021/06/25 02:03:03;;;;;;;41.75;7.85;;;;;;;;;;5052207;28;20068;-63
2021/06/25 02:05:29;;;;;;;40.50;8.70;;;;;;;;;;5052091;28;20353;-60
2021/06/25 02:07:55;;;;;;;47.33;8.88;;;;;;;;;;5052099;28;20083;-61
2021/06/25 02:10:21;;;;;;;48.95;9.60;;;;;;;;;;5052120;28;20053;-60
2021/06/25 02:12:47;;;;;;;46.58;8.10;;;;;;;;;;5051942;28;20028;-60
2021/06/25 02:15:13;;;;;;;40.97;8.98;;;;;;;;;;5051809;28;20032;-60
2021/06/25 02:17:40;;;;;;;45.83;8.93;;;;;;;;;;5051920;28;20041;-60
2021/06/25 02:20:06;;;;;;;45.17;8.65;;;;;;;;;;5052025;28;20381;-62
2021/06/25 02:22:33;;;;;;;35.33;9.32;;;;;;;;;;5051964;28;20029;-60
2021/06/25 02:24:59;;;;;;;35.33;8.32;;;;;;;;;;5051994;28;20353;-61
2021/06/25 02:27:25;;;;;;;33.90;7.80;;;;;;;;;;5050671;28;20361;-61
2021/06/25 02:29:51;;;;;;;36.97;7.70;;;;;;;;;;5051923;28;20017;-60
2021/06/25 02:32:17;;;;;;;42.45;8.50;;;;;;;;;;5061578;28;20024;-61
2021/06/25 02:34:44;;;;;;;38.00;8.82;;;;;;;;;;5071810;28;20021;-62
2021/06/25 02:37:10;;;;;;;36.15;8.38;;;;;;;;;;5075573;28;20035;-63
2021/06/25 02:39:36;;;;;;;38.38;7.63;;;;;;;;;;5075981;28;20464;-61
2021/06/25 02:42:04;;;;;;;44.70;8.80;;;;;;;;;;5076038;28;20100;-60
2021/06/25 02:44:30;;;;;;;37.92;8.18;;;;;;;;;;5075980;28;20044;-60
2021/06/25 02:46:56;;;;;;;38.90;8.13;;;;;;;;;;5075940;28;20067;-60
2021/06/25 02:49:23;;;;;;;37.78;8.10;;;;;;;;;;5075998;28;20028;-60
2021/06/25 02:51:49;;;;;;;29.75;8.43;;;;;;;;;;5075902;28;20043;-61
2021/06/25 02:54:15;;;;;;;44.10;9.30;;;;;;;;;;5076050;28;20035;-62
2021/06/25 02:56:41;;;;;;;39.40;8.80;;;;;;;;;;5075411;28;20032;-62
2021/06/25 02:59:07;;;;;;;31.25;8.45;;;;;;;;;;5075543;28;20523;-62
2021/06/25 03:01:33;;;;;;;40.03;9.38;;;;;;;;;;5075652;28;20029;-61
2021/06/25 03:03:59;;;;;;;38.83;8.70;;;;;;;;;;5075461;28;20028;-60
2021/06/25 03:06:25;;;;;;;39.67;9.00;;;;;;;;;;5075577;28;20353;-60
2021/06/25 03:08:51;;;;;;;39.80;9.82;;;;;;;;;;5075423;28;20522;-61
2021/06/25 03:11:18;;;;;;;31.48;8.68;;;;;;;;;;5075711;28;20458;-60
2021/06/25 03:13:44;;;;;;;30.55;8.73;;;;;;;;;;5075450;28;20477;-60
2021/06/25 03:16:10;;;;;;;34.80;9.25;;;;;;;;;;5075237;28;20494;-60
2021/06/25 03:18:36;;;;;;;33.05;9.07;;;;;;;;;;5075277;28;20028;-61
2021/06/25 03:21:02;;;;;;;35.58;8.65;;;;;;;;;;5075147;28;20048;-60
2021/06/25 03:23:28;;;;;;;24.77;8.10;;;;;;;;;;5075121;28;20100;-63
2021/06/25 03:25:55;;;;;;;26.70;9.02;;;;;;;;;;5075116;28;20578;-61
2021/06/25 03:28:21;;;;;;;32.10;8.32;;;;;;;;;;5075150;28;20024;-62
2021/06/25 03:30:47;;;;;;;38.25;9.00;;;;;;;;;;5075060;28;20082;-62
2021/06/25 03:33:13;;;;;;;24.20;7.97;;;;;;;;;;5090099;28;20502;-60
2021/06/25 03:35:39;;;;;;;27.85;8.20;;;;;;;;;;5057751;28;20639;-61
2021/06/25 03:38:05;;;;;;;35.90;9.23;;;;;;;;;;5055074;28;20029;-60
2021/06/25 03:40:33;;;;;;;31.88;7.80;;;;;;;;;;5054905;28;20383;-60
2021/06/25 03:42:59;;;;;;;27.63;7.68;;;;;;;;;;5065717;28;20033;-60
2021/06/25 03:45:25;;;;;;;29.10;8.40;;;;;;;;;;5074743;28;20046;-60
2021/06/25 03:47:52;;;;;;;26.55;8.85;;;;;;;;;;5090245;28;20115;-60
2021/06/25 03:50:18;;;;;;;25.40;7.60;;;;;;;;;;5074678;28;20021;-62
2021/06/25 03:52:44;;;;;;;24.33;8.05;;;;;;;;;;5074560;28;20047;-61
2021/06/25 03:55:11;;;;;;;19.63;7.30;;;;;;;;;;5074564;28;20082;-60
2021/06/25 03:57:40;;;;;;;18.08;6.95;;;;;;;;;;5074406;28;20048;-60
2021/06/25 04:00:07;;;;;;;21.98;6.93;;;;;;;;;;5074650;28;20434;-61
2021/06/25 04:02:33;;;;;;;15.82;7.65;;;;;;;;;;5074540;28;20095;-61
2021/06/25 04:04:59;;;;;;;22.42;6.60;;;;;;;;;;5074436;28;20044;-60
2021/06/25 04:07:27;;;;;;;15.20;5.47;;;;;;;;;;5074106;28;20028;-61
2021/06/25 04:09:53;;;;;;;21.35;6.22;;;;;;;;;;5074090;28;20459;-61
2021/06/25 04:12:19;;;;;;;28.42;6.82;;;;;;;;;;5073990;28;20078;-60
2021/06/25 04:14:45;;;;;;;20.17;5.78;;;;;;;;;;5073867;28;20494;-60
2021/06/25 04:17:11;;;;;;;16.38;6.35;;;;;;;;;;5073880;28;20098;-60
2021/06/25 04:19:37;;;;;;;22.00;7.05;;;;;;;;;;5073326;28;20104;-59
2021/06/25 04:22:04;;;;;;;19.58;6.43;;;;;;;;;;5074140;28;20025;-60
2021/06/25 04:24:30;;;;;;;30.67;6.50;;;;;;;;;;5073861;28;20028;-61
2021/06/25 04:26:56;;;;;;;22.23;6.72;;;;;;;;;;5074086;28;20028;-61
2021/06/25 04:29:22;;;;;;;17.52;6.70;;;;;;;;;;5074025;28;20021;-60
2021/06/25 04:31:53;;;;;;;24.15;7.22;;;;;;;;;;5074024;28;20051;-60
2021/06/25 04:34:19;;;;;;;19.80;6.05;;;;;;;;;;5073816;28;20017;-62
2021/06/25 04:36:45;;;;;;;20.48;6.18;;;;;;;;;;5073641;28;20028;-61
2021/06/25 04:39:11;;;;;;;17.10;6.43;;;;;;;;;;5073921;28;20017;-61
2021/06/25 04:41:37;;;;;;;15.55;6.43;;;;;;;;;;5074060;28;20422;-60
2021/06/25 04:44:03;;;;;;;18.15;6.13;;;;;;;;;;5073776;28;20056;-61
2021/06/25 04:46:29;;;;;;;18.98;5.63;;;;;;;;;;5073449;28;20021;-61
2021/06/25 04:48:56;;;;;;;16.23;6.30;;;;;;;;;;5073438;28;20029;-60
2021/06/25 04:51:22;;;;;;;15.85;6.38;;;;;;;;;;5073798;28;20048;-62
2021/06/25 04:53:48;;;;;;;14.80;6.18;;;;;;;;;;5073556;28;20028;-63
2021/06/25 04:56:14;;;;;;;23.35;6.57;;;;;;;;;;5073514;28;20029;-60
2021/06/25 04:58:40;;;;;;;19.83;6.20;;;;;;;;;;5072262;28;20495;-60
2021/06/25 05:01:06;;;;;;;18.10;5.88;;;;;;;;;;5073242;28;20024;-60
2021/06/25 05:03:33;;;;;;;17.95;5.50;;;;;;;;;;5072859;28;20540;-62
2021/06/25 05:05:59;;;;;;;13.45;5.47;;;;;;;;;;5071863;28;20029;-60
2021/06/25 05:08:26;;;;;;;16.17;5.50;;;;;;;;;;5073015;28;20182;-60
2021/06/25 05:10:52;;;;;;;20.58;5.75;;;;;;;;;;5072957;28;20166;-60
2021/06/25 05:13:18;;;;;;;14.95;5.25;;;;;;;;;;5073318;28;20442;-61
2021/06/25 05:15:44;;;;;;;14.20;5.55;;;;;;;;;;5073013;28;20028;-61
2021/06/25 05:18:11;;;;;;;12.13;4.85;;;;;;;;;;5073016;28;20107;-63
2021/06/25 05:20:37;;;;;;;12.90;5.07;;;;;;;;;;5073279;28;20027;-61
2021/06/25 05:23:03;;;;;;;18.48;5.38;;;;;;;;;;5072937;28;20025;-63
2021/06/25 05:25:29;;;;;;;14.98;4.82;;;;;;;;;;5073169;28;20021;-61
2021/06/25 05:27:55;;;;;;;18.08;4.97;;;;;;;;;;5072547;28;20025;-60
2021/06/25 05:30:21;;;;;;;11.77;4.68;;;;;;;;;;5072331;28;20021;-60
2021/06/25 05:32:47;;;;;;;17.38;5.10;;;;;;;;;;5072328;28;20061;-62
2021/06/25 05:35:13;;;;;;;16.60;4.80;;;;;;;;;;5072813;28;20024;-61
2021/06/25 05:37:40;;;;;;;14.20;4.22;;;;;;;;;;5072443;28;20085;-62
2021/06/25 05:40:06;;;;;;;15.02;4.80;;;;;;;;;;5072503;28;20510;-61
2021/06/25 05:42:32;;;;;;;19.40;5.22;;;;;;;;;;5065713;28;20055;-62
2021/06/25 05:44:58;;;;;;;18.48;4.50;;;;;;;;;;5052749;28;20028;-60
2021/06/25 05:47:24;;;;;;;16.75;4.90;;;;;;;;;;5052562;28;20071;-61
2021/06/25 05:49:50;;;;;;;17.83;4.85;;;;;;;;;;5052613;28;20053;-60
2021/06/25 05:52:16;;;;;;;16.25;4.50;;;;;;;;;;5052518;28;20032;-60
2021/06/25 05:54:42;;;;;;;19.88;4.60;;;;;;;;;;5051936;28;20144;-61
2021/06/25 05:57:09;;;;;;;16.52;4.38;;;;;;;;;;5066890;28;20044;-60
2021/06/25 05:59:35;;;;;;;13.48;4.90;;;;;;;;;;5051722;28;20074;-59
2021/06/25 06:02:01;;;;;;;11.02;4.53;;;;;;;;;;5051659;28;20028;-60
2021/06/25 06:04:27;;;;;;;15.95;4.80;;;;;;;;;;5051770;28;20029;-60
2021/06/25 06:06:53;;;;;;;12.77;4.78;;;;;;;;;;5051612;28;20017;-60
2021/06/25 06:09:19;;;;;;;13.52;4.78;;;;;;;;;;5051376;28;20014;-59
2021/06/25 06:11:45;;;;;;;15.68;5.00;;;;;;;;;;5051054;28;20043;-60
2021/06/25 06:14:11;;;;;;;21.40;5.80;;;;;;;;;;5051419;28;20082;-60
2021/06/25 06:16:37;;;;;;;15.82;4.63;;;;;;;;;;5051641;28;20045;-60
2021/06/25 06:19:05;;;;;;;14.27;4.80;;;;;;;;;;5052162;28;20018;-62
2021/06/25 06:31:10;;;;;;;17.00;5.30;;;;;;;;;;5052022;28;20577;-62
2021/06/25 06:33:15;;;;;;;10.98;4.20;;;;;;;;;;5051371;28;20035;-60
2021/06/25 06:35:19;;;;;;;17.45;4.72;;;;;;;;;;5051165;28;20083;-65
2021/06/25 06:37:50;;;;;;;13.25;5.05;;;;;;;;;;5051685;28;20036;-60
2021/06/25 06:40:19;;;;;;;13.00;5.00;;;;;;;;;;5051517;28;20029;-60
2021/06/25 06:42:45;;;;;;;13.35;4.18;;;;;;;;;;5051722;28;20499;-61
2021/06/25 06:45:11;;;;;;;14.93;4.47;;;;;;;;;;5051580;28;20029;-62
2021/06/25 06:47:37;;;;;;;15.77;4.18;;;;;;;;;;5051698;28;20083;-60
2021/06/25 06:50:04;;;;;;;13.75;4.28;;;;;;;;;;5051692;28;20029;-59
2021/06/25 06:52:30;;;;;;;12.80;4.55;;;;;;;;;;5051399;28;20100;-60
2021/06/25 06:54:56;;;;;;;10.93;3.95;;;;;;;;;;5051328;28;20025;-59
2021/06/25 06:57:22;;;;;;;12.07;4.30;;;;;;;;;;5050744;28;20045;-60
2021/06/25 06:59:48;;;;;;;13.40;4.70;;;;;;;;;;5050939;28;20108;-60
2021/06/25 07:02:14;;;;;;;18.52;5.00;;;;;;;;;;5051340;28;20032;-60
2021/06/25 07:04:40;;;;;;;13.90;3.85;;;;;;;;;;5051499;28;20082;-62
2021/06/25 07:07:06;;;;;;;11.55;3.33;;;;;;;;;;5051284;28;20086;-60
2021/06/25 07:09:32;;;;;;;14.90;3.72;;;;;;;;;;5055047;28;20025;-61
2021/06/25 07:11:58;;;;;;;15.52;8.23;;;;;;;;;;5071152;28;20118;-60
2021/06/25 07:14:24;;;;;;;49.45;22.52;;;;;;;;;;5071281;28;20028;-60
2021/06/25 07:16:50;;;;;;;32.67;10.13;;;;;;;;;;5070901;28;20463;-60
2021/06/25 07:19:16;;;;;;;19.95;5.30;;;;;;;;;;5070864;28;20028;-60
2021/06/25 07:21:42;;;;;;;12.32;3.72;;;;;;;;;;5072414;28;20024;-59
2021/06/25 07:24:08;;;;;;;16.95;4.47;;;;;;;;;;5074639;28;20020;-59
2021/06/25 07:26:34;;;;;;;10.60;3.55;;;;;;;;;;5074578;28;20024;-59
2021/06/25 07:29:01;;;;;;;10.95;3.75;;;;;;;;;;5073367;28;20032;-59
2021/06/25 07:31:27;;;;;;;10.82;3.92;;;;;;;;;;5063189;28;20090;-60
2021/06/25 07:33:53;;;;;;;9.88;3.60;;;;;;;;;;5070597;28;20043;-60
2021/06/25 07:36:19;;;;;;;9.52;3.40;;;;;;;;;;5069678;28;20032;-60
2021/06/25 07:38:45;;;;;;;8.07;3.63;;;;;;;;;;5074251;28;20097;-60
2021/06/25 07:41:11;;;;;;;10.60;3.67;;;;;;;;;;5073845;28;20024;-61
2021/06/25 07:43:38;;;;;;;11.85;3.83;;;;;;;;;;5070790;28;20074;-59
2021/06/25 07:46:04;;;;;;;9.43;3.50;;;;;;;;;;5072454;28;20047;-59
2021/06/25 07:48:30;;;;;;;10.65;3.75;;;;;;;;;;5072872;28;20052;-59
2021/06/25 07:50:56;;;;;;;10.75;4.03;;;;;;;;;;5073750;28;20029;-59
2021/06/25 07:53:22;;;;;;;12.40;3.65;;;;;;;;;;5074065;28;20103;-59
2021/06/25 07:55:48;;;;;;;11.18;4.00;;;;;;;;;;5073904;28;20065;-59
2021/06/25 07:58:17;;;;;;;10.52;3.67;;;;;;;;;;5073671;28;20044;-60
2021/06/25 08:00:44;;;;;;;9.32;3.60;;;;;;;;;;5073776;28;20025;-59
2021/06/25 08:03:10;;;;;;;13.00;3.83;;;;;;;;;;5074462;28;20036;-59
2021/06/25 08:05:36;;;;;;;11.52;3.35;;;;;;;;;;5074160;28;20028;-59
2021/06/25 08:08:02;;;;;;;9.35;3.55;;;;;;;;;;5074431;28;20025;-59
2021/06/25 08:10:28;;;;;;;15.02;4.13;;;;;;;;;;5073855;28;20016;-59
2021/06/25 08:12:54;;;;;;;13.52;4.03;;;;;;;;;;5074316;28;20074;-59
2021/06/25 08:15:21;;;;;;;12.23;3.97;;;;;;;;;;5074014;28;20114;-60
2021/06/25 08:17:47;;;;;;;12.07;3.70;;;;;;;;;;5073696;28;20194;-59
2021/06/25 08:20:13;;;;;;;9.73;3.25;;;;;;;;;;5073692;28;20021;-62
2021/06/25 08:22:39;;;;;;;8.73;3.33;;;;;;;;;;5069365;28;20036;-60
2021/06/25 08:25:05;;;;;;;12.20;3.90;;;;;;;;;;5072916;28;20017;-60
2021/06/25 08:27:31;;;;;;;7.45;3.25;;;;;;;;;;5071133;28;20555;-59
2021/06/25 08:29:57;;;;;;;10.52;3.50;;;;;;;;;;5072886;28;20111;-60
2021/06/25 08:32:24;;;;;;;10.25;3.70;;;;;;;;;;5072534;28;20025;-62
2021/06/25 08:34:50;;;;;;;12.25;4.03;;;;;;;;;;5072609;28;20480;-60
2021/06/25 08:37:16;;;;;;;10.82;3.67;;;;;;;;;;5072559;28;20068;-60
2021/06/25 08:39:42;;;;;;;11.45;3.13;;;;;;;;;;5072582;28;20040;-60
2021/06/25 08:42:08;;;;;;;8.07;3.30;;;;;;;;;;5072684;28;20024;-62
2021/06/25 08:44:35;;;;;;;10.85;3.53;;;;;;;;;;5072477;28;20016;-60
2021/06/25 08:47:02;;;;;;;10.38;3.22;;;;;;;;;;5072696;28;20016;-62
2021/06/25 08:49:29;;;;;;;13.23;3.75;;;;;;;;;;5072540;28;20021;-62
2021/06/25 08:51:55;;;;;;;6.78;3.45;;;;;;;;;;5072762;28;20494;-62
2021/06/25 08:54:21;;;;;;;10.93;3.33;;;;;;;;;;5072286;28;20013;-60
2021/06/25 08:56:47;;;;;;;12.20;3.30;;;;;;;;;;5072146;28;20029;-61
2021/06/25 08:59:19;;;;;;;11.45;3.60;;;;;;;;;;5072082;28;20048;-61
2021/06/25 09:01:46;;;;;;;7.97;3.25;;;;;;;;;;5072177;28;20103;-62
2021/06/25 09:04:29;;;;;;;11.32;3.63;;;;;;;;;;5072257;28;20079;-59
2021/06/25 09:06:55;;;;;;;8.05;3.20;;;;;;;;;;5072307;28;20518;-60
2021/06/25 09:09:21;;;;;;;9.07;3.30;;;;;;;;;;5072089;28;20020;-59
2021/06/25 09:12:06;;;;;;;13.13;3.65;;;;;;;;;;5072016;28;20074;-60
2021/06/25 09:14:52;;;;;;;12.30;3.70;;;;;;;;;;5072075;28;20044;-59
2021/06/25 09:17:18;;;;;;;11.68;3.72;;;;;;;;;;5071484;28;20130;-59
2021/06/25 09:19:44;;;;;;;15.93;3.55;;;;;;;;;;5071227;28;20522;-59
2021/06/25 09:22:10;;;;;;;8.27;3.00;;;;;;;;;;5072296;28;20093;-62
2021/06/25 09:24:36;;;;;;;8.18;3.38;;;;;;;;;;5072034;28;20020;-59
2021/06/25 09:27:03;;;;;;;8.80;3.40;;;;;;;;;;5071800;28;20106;-59
2021/06/25 09:29:34;;;;;;;8.07;3.40;;;;;;;;;;5071562;28;20063;-59
2021/06/25 09:32:04;;;;;;;7.95;3.05;;;;;;;;;;5071698;28;20027;-62
2021/06/25 09:34:37;;;;;;;9.45;2.83;;;;;;;;;;5071927;28;20028;-60
2021/06/25 09:37:04;;;;;;;9.90;3.33;;;;;;;;;;5071598;28;20043;-59
2021/06/25 09:39:30;;;;;;;9.77;3.20;;;;;;;;;;5071530;28;20021;-62
2021/06/25 09:41:56;;;;;;;9.65;3.00;;;;;;;;;;5071520;28;20024;-60
2021/06/25 09:44:24;;;;;;;12.98;3.10;;;;;;;;;;5071286;28;20464;-62
2021/06/25 09:46:51;;;;;;;10.77;3.65;;;;;;;;;;5071490;28;20494;-59
2021/06/25 09:49:23;;;;;;;11.77;3.53;;;;;;;;;;5071947;28;20033;-60
2021/06/25 09:51:59;;;;;;;7.03;3.13;;;;;;;;;;5071826;28;20067;-61
2021/06/25 09:54:26;;;;;;;5.72;3.05;;;;;;;;;;5071635;28;20036;-60
2021/06/25 09:57:14;;;;;;;8.57;3.08;;;;;;;;;;5071500;28;20021;-63
2021/06/25 10:02:19;;;;;;;8.13;2.97;;;;;;;;;;5064093;28;20592;-60
2021/06/25 10:04:46;;;;;;;8.60;3.10;;;;;;;;;;5070822;28;20561;-60
2021/06/25 10:07:17;;;;;;;11.77;3.80;;;;;;;;;;5080042;28;20032;-61
2021/06/25 10:09:43;;;;;;;9.85;3.97;;;;;;;;;;5070836;28;20082;-62
2021/06/25 10:12:10;;;;;;;11.75;3.80;;;;;;;;;;5069483;28;20411;-61
2021/06/25 10:14:37;;;;;;;13.13;3.50;;;;;;;;;;5070462;28;20115;-63
2021/06/25 10:17:05;;;;;;;9.13;3.90;;;;;;;;;;5069949;28;20037;-63
2021/06/25 10:19:31;;;;;;;10.82;4.28;;;;;;;;;;5079247;28;20066;-62
2021/06/25 10:22:01;;;;;;;8.80;3.47;;;;;;;;;;5070333;28;20074;-59
2021/06/25 10:24:28;;;;;;;9.82;3.70;;;;;;;;;;5070785;28;20546;-60
2021/06/25 10:26:54;;;;;;;7.47;3.72;;;;;;;;;;5070347;28;20030;-61
2021/06/25 10:29:21;;;;;;;8.32;3.25;;;;;;;;;;5070582;28;20035;-59
2021/06/25 10:31:47;;;;;;;13.52;4.13;;;;;;;;;;5070589;28;20021;-61
2021/06/25 10:34:13;;;;;;;11.07;3.90;;;;;;;;;;5070516;28;20048;-60
2021/06/25 10:36:40;;;;;;;7.05;3.63;;;;;;;;;;5070292;28;20032;-60
2021/06/25 10:39:09;;;;;;;12.73;3.55;;;;;;;;;;5069801;28;20025;-59
2021/06/25 10:41:48;;;;;;;9.10;3.78;;;;;;;;;;5069585;28;20028;-59
2021/06/25 10:44:34;;;;;;;6.55;3.63;;;;;;;;;;5054483;28;20016;-60
2021/06/25 10:47:12;;;;;;;10.80;3.42;;;;;;;;;;5070685;28;20651;-62
2021/06/25 10:49:58;;;;;;;8.70;3.58;;;;;;;;;;5070587;28;20492;-63
2021/06/25 10:52:25;;;;;;;9.88;3.35;;;;;;;;;;5056230;28;20020;-61
2021/06/25 10:55:06;;;;;;;9.15;3.58;;;;;;;;;;5070465;28;20016;-63
2021/06/25 10:57:33;;;;;;;15.75;3.38;;;;;;;;;;5074731;28;20492;-63
2021/06/25 10:59:59;;;;;;;8.02;3.17;;;;;;;;;;5074434;28;20028;-59
2021/06/25 11:02:44;;;;;;;8.32;3.20;;;;;;;;;;5074426;28;20074;-60
2021/06/25 11:05:26;;;;;;;11.27;3.13;;;;;;;;;;5074864;28;20016;-63
2021/06/25 11:07:53;;;;;;;9.05;3.40;;;;;;;;;;5074803;28;20024;-61
2021/06/25 11:10:26;;;;;;;10.05;3.65;;;;;;;;;;5074475;28;20015;-60
2021/06/25 11:13:12;;;;;;;12.63;3.30;;;;;;;;;;5074535;28;20079;-60
2021/06/25 11:15:38;;;;;;;8.48;3.17;;;;;;;;;;5074312;28;20025;-63
2021/06/25 11:18:25;;;;;;;6.60;3.38;;;;;;;;;;5074754;28;20020;-63
2021/06/25 11:20:55;;;;;;;10.80;3.80;;;;;;;;;;5074234;28;20021;-59
2021/06/25 11:23:26;;;;;;;7.72;4.10;;;;;;;;;;5074306;28;20059;-60
2021/06/25 11:25:52;;;;;;;52.03;4.95;;;;;;;;;;5074417;28;20039;-62
2021/06/25 11:28:27;;;;;;;9.02;3.10;;;;;;;;;;5070478;28;20028;-60
2021/06/25 11:31:10;;;;;;;10.82;2.92;;;;;;;;;;5073820;28;20029;-59
2021/06/25 11:33:40;;;;;;;7.93;3.50;;;;;;;;;;5073743;28;20016;-58
2021/06/25 11:36:15;;;;;;;10.82;3.38;;;;;;;;;;5062104;28;20062;-60
2021/06/25 11:38:59;;;;;;;8.38;3.10;;;;;;;;;;5074086;28;20103;-59
2021/06/25 11:41:34;;;;;;;9.95;3.00;;;;;;;;;;5073486;28;20070;-60
2021/06/25 11:44:01;;;;;;;9.70;2.92;;;;;;;;;;5073532;28;20387;-59
2021/06/25 11:46:27;;;;;;;9.20;3.03;;;;;;;;;;5073397;28;20099;-59
2021/06/25 11:49:00;;;;;;;5.28;3.03;;;;;;;;;;5073228;28;20036;-60
2021/06/25 11:51:33;;;;;;;12.57;3.33;;;;;;;;;;5073507;28;20021;-59
2021/06/25 11:54:01;;;;;;;12.30;3.20;;;;;;;;;;5073853;28;20111;-59
2021/06/25 11:56:27;;;;;;;7.32;3.33;;;;;;;;;;5090925;28;20035;-59
2021/06/25 11:59:01;;;;;;;8.55;2.78;;;;;;;;;;5093900;28;20048;-60
2021/06/25 12:01:27;;;;;;;8.85;3.22;;;;;;;;;;5093871;28;20028;-59
2021/06/25 12:03:54;;;;;;;8.68;3.20;;;;;;;;;;5094224;28;20062;-59
2021/06/25 12:06:21;;;;;;;8.70;3.53;;;;;;;;;;5093884;28;20028;-67
2021/06/25 12:08:51;;;;;;;10.23;2.90;;;;;;;;;;5090451;28;20035;-60
2021/06/25 12:11:18;;;;;;;6.38;2.85;;;;;;;;;;5092792;28;20031;-59
2021/06/25 12:46:43;;;;;;;9.48;2.85;;;;;;;;;;5107270;27;20481;-63
2021/06/25 12:49:09;;;;;;;8.30;3.22;;;;;;;;;;5110095;28;20020;-61
2021/06/25 12:51:37;;;;;;;9.65;3.08;;;;;;;;;;5107230;28;20494;-60
2021/06/25 12:54:03;;;;;;;5.47;3.08;;;;;;;;;;5107767;28;20034;-61
2021/06/25 12:56:32;;;;;;;9.00;3.35;;;;;;;;;;5107745;28;20037;-59
2021/06/25 12:58:59;;;;;;;14.43;3.53;;;;;;;;;;5108279;28;20352;-60
2021/06/25 13:01:25;;;;;;;8.43;3.60;;;;;;;;;;5108464;28;20024;-61
2021/06/25 13:03:51;;;;;;;12.70;3.17;;;;;;;;;;5097104;28;20040;-60
2021/06/25 13:06:24;;;;;;;9.52;2.85;;;;;;;;;;5099582;28;20086;-59
2021/06/25 13:08:50;;;;;;;5.05;3.05;;;;;;;;;;5107091;28;20016;-60
2021/06/25 13:11:20;;;;;;;8.82;2.75;;;;;;;;;;5107953;28;20106;-60
2021/06/25 13:13:46;;;;;;;6.88;3.20;;;;;;;;;;5107629;28;20496;-61
2021/06/25 13:16:16;;;;;;;7.70;2.85;;;;;;;;;;5108156;28;20115;-59
2021/06/25 13:18:44;;;;;;;11.05;2.72;;;;;;;;;;5108017;28;20028;-59
2021/06/25 13:21:28;;;;;;;8.27;2.85;;;;;;;;;;5107765;28;20035;-61
2021/06/25 13:23:54;;;;;;;9.88;2.70;;;;;;;;;;5106964;28;20089;-60
2021/06/25 13:26:32;;;;;;;5.00;2.75;;;;;;;;;;5107987;28;20023;-63
2021/06/25 13:28:58;;;;;;;9.05;3.10;;;;;;;;;;5106643;28;20028;-61
2021/06/25 13:31:24;;;;;;;9.02;3.15;;;;;;;;;;5107733;28;20028;-61
2021/06/25 13:33:51;;;;;;;14.38;3.30;;;;;;;;;;5107874;28;20024;-63
2021/06/25 13:36:17;;;;;;;7.10;3.05;;;;;;;;;;5107673;28;20031;-62
2021/06/25 13:38:43;;;;;;;7.50;2.90;;;;;;;;;;5107431;28;20086;-61
2021/06/25 13:41:24;;;;;;;15.45;3.00;;;;;;;;;;5106117;28;20423;-55
2021/06/25 13:43:57;;;;;;;11.70;3.20;;;;;;;;;;5107542;28;20099;-60
2021/06/25 13:46:27;;;;;;;10.50;3.60;;;;;;;;;;5101143;28;20040;-51
2021/06/25 13:49:01;;;;;;;19.23;3.40;;;;;;;;;;5094411;28;20024;-51
2021/06/25 13:51:27;;;;;;;10.80;3.13;;;;;;;;;;5094223;28;20073;-56
2021/06/25 13:53:54;;;;;;;7.32;2.60;;;;;;;;;;5094041;28;20094;-64
2021/06/25 13:56:24;;;;;;;12.27;3.05;;;;;;;;;;5093866;28;20027;-60
2021/06/25 13:58:50;;;;;;;15.15;2.90;;;;;;;;;;5094038;28;20024;-46
2021/06/25 14:01:21;;;;;;;11.38;3.10;;;;;;;;;;5094461;28;20024;-52
2021/06/25 14:04:08;;;;;;;13.35;2.80;;;;;;;;;;5094242;28;20031;-55
2021/06/25 14:06:35;;;;;;;9.32;2.90;;;;;;;;;;5093517;28;20484;-52
2021/06/25 14:09:01;;;;;;;9.88;3.13;;;;;;;;;;5093518;28;20043;-53
2021/06/25 14:11:29;;;;;;;10.05;3.00;;;;;;;;;;5093516;28;20162;-50
2021/06/25 14:13:56;;;;;;;6.18;2.65;;;;;;;;;;5093611;28;20036;-50
2021/06/25 14:16:22;;;;;;;6.03;2.47;;;;;;;;;;5089792;28;20411;-56
2021/06/25 14:18:52;;;;;;;9.63;2.72;;;;;;;;;;5093421;28;20085;-55
2021/06/25 14:21:19;;;;;;;7.75;2.85;;;;;;;;;;5093525;28;20020;-55
2021/06/25 14:23:46;;;;;;;6.85;2.80;;;;;;;;;;5093612;28;20452;-56
2021/06/25 14:26:12;;;;;;;5.90;2.58;;;;;;;;;;5092931;28;20032;-50
2021/06/25 14:28:38;;;;;;;5.93;2.63;;;;;;;;;;5091725;28;20027;-48
2021/06/25 14:31:04;;;;;;;6.18;2.75;;;;;;;;;;5093026;28;20055;-61
2021/06/25 14:33:31;;;;;;;11.55;2.33;;;;;;;;;;5093718;28;20051;-47
2021/06/25 14:35:57;;;;;;;8.35;2.78;;;;;;;;;;5090655;28;20086;-46
2021/06/25 14:38:23;;;;;;;10.90;2.58;;;;;;;;;;5088980;28;20016;-51
2021/06/25 14:40:49;;;;;;;9.52;2.90;;;;;;;;;;5092894;28;20020;-50
2021/06/25 14:43:16;;;;;;;9.95;3.40;;;;;;;;;;5092785;28;20062;-50
2021/06/25 14:45:42;;;;;;;44.65;3.45;;;;;;;;;;5092269;28;20044;-45
2021/06/25 14:48:08;;;;;;;9.23;2.40;;;;;;;;;;5089387;28;20027;-47
2021/06/25 14:50:34;;;;;;;5.97;2.50;;;;;;;;;;5091697;28;20132;-64
2021/06/25 14:53:00;;;;;;;7.03;2.20;;;;;;;;;;5091767;28;20028;-47
2021/06/25 14:55:26;;;;;;;7.38;2.45;;;;;;;;;;5091514;28;20042;-55
2021/06/25 14:57:52;;;;;;;6.22;2.40;;;;;;;;;;5090699;28;20097;-63
2021/06/25 15:00:18;;;;;;;13.02;2.65;;;;;;;;;;5091611;28;20204;-63
2021/06/25 15:02:45;;;;;;;7.20;2.33;;;;;;;;;;5091435;28;20016;-69
2021/06/25 15:05:11;;;;;;;12.88;2.63;;;;;;;;;;5090968;28;20586;-70
2021/06/25 15:07:37;;;;;;;7.03;2.60;;;;;;;;;;5092105;28;20023;-76
2021/06/25 15:10:03;;;;;;;8.25;2.58;;;;;;;;;;5091451;28;20035;-67
2021/06/25 15:12:30;;;;;;;8.00;2.40;;;;;;;;;;5091489;28;20078;-70
2021/06/25 15:14:56;;;;;;;7.57;2.90;;;;;;;;;;5092100;28;20050;-69
2021/06/25 15:17:23;;;;;;;8.60;2.63;;;;;;;;;;5092387;28;20020;-67
2021/06/25 15:19:49;;;;;;;10.50;2.47;;;;;;;;;;5091230;28;20445;-81